createdAt,value
2023-01-03T00:00:39.481Z,16.93
2023-01-03T00:03:07.256Z,16.90
2023-01-03T00:05:35.607Z,16.90
2023-01-03T00:08:04.800Z,19.90
2023-01-03T00:10:32.505Z,15.57
2023-01-03T00:13:00.245Z,16.67
2023-01-03T00:15:28.507Z,15.27
2023-01-03T00:17:56.599Z,16.50
2023-01-03T00:20:24.340Z,16.97
2023-01-03T00:22:52.272Z,15.37
2023-01-03T00:25:21.685Z,14.77
2023-01-03T00:27:49.485Z,15.03
2023-01-03T00:30:17.358Z,18.97
2023-01-03T00:32:45.102Z,17.00
2023-01-03T00:35:12.879Z,17.40
2023-01-03T00:37:40.572Z,14.50
2023-01-03T00:40:09.876Z,16.00
2023-01-03T00:42:52.817Z,14.60
2023-01-03T00:45:22.550Z,15.20
2023-01-03T00:47:53.163Z,13.93
2023-01-03T00:50:20.970Z,15.17
2023-01-03T00:52:48.698Z,14.97
2023-01-03T00:55:16.666Z,12.43
2023-01-03T00:57:45.822Z,12.03
2023-01-03T01:00:14.714Z,11.07
2023-01-03T01:02:42.588Z,11.90
2023-01-03T01:05:10.546Z,11.33
2023-01-03T01:07:38.273Z,11.87
2023-01-03T01:10:06.898Z,10.13
2023-01-03T01:12:34.647Z,9.27
2023-01-03T01:15:03.751Z,6.20
2023-01-03T01:17:31.514Z,6.80
2023-01-03T01:19:59.227Z,6.90
2023-01-03T01:22:26.983Z,6.67
2023-01-03T01:24:54.670Z,6.57
2023-01-03T01:27:22.627Z,6.97
2023-01-03T01:29:50.490Z,5.30
2023-01-03T01:32:19.614Z,5.70
2023-01-03T01:34:47.389Z,6.90
2023-01-03T01:37:15.096Z,5.27
2023-01-03T01:39:43.039Z,9.47
2023-01-03T01:42:32.024Z,11.83
2023-01-03T01:45:00.824Z,10.87
2023-01-03T01:47:35.551Z,8.20
2023-01-03T01:50:15.909Z,7.73
2023-01-03T01:52:48.690Z,7.60
2023-01-03T01:55:20.617Z,8.27
2023-01-03T01:57:48.590Z,9.03
2023-01-03T02:00:16.960Z,8.53
2023-01-03T02:02:49.462Z,8.37
2023-01-03T02:05:19.674Z,8.00
2023-01-03T02:07:50.278Z,7.57
2023-01-03T02:10:18.766Z,5.57
2023-01-03T02:13:06.851Z,6.23
2023-01-03T02:15:51.551Z,5.83
2023-01-03T02:18:36.673Z,4.50
2023-01-03T02:21:33.506Z,4.40
2023-01-03T02:24:32.607Z,4.00
2023-01-03T02:27:09.156Z,3.87
2023-01-03T02:30:19.726Z,3.00
2023-01-03T02:32:54.110Z,2.90
2023-01-03T02:35:30.725Z,2.63
2023-01-03T02:38:04.424Z,2.40
2023-01-03T02:40:40.091Z,2.00
2023-01-03T02:43:13.830Z,2.03
2023-01-03T02:46:00.885Z,2.33
2023-01-03T02:48:37.924Z,1.70
2023-01-03T02:51:11.751Z,1.83
2023-01-03T02:53:44.389Z,1.60
2023-01-03T02:56:18.842Z,1.97
2023-01-03T02:58:50.593Z,1.93
2023-01-03T03:01:21.099Z,2.23
2023-01-03T03:03:49.350Z,2.33
2023-01-03T03:06:23.139Z,1.80
2023-01-03T03:08:51.006Z,1.93
2023-01-03T03:11:36.751Z,2.13
2023-01-03T03:14:09.831Z,2.30
2023-01-03T03:16:49.045Z,2.50
2023-01-03T03:19:41.948Z,1.77
2023-01-03T03:22:33.352Z,1.80
2023-01-03T03:25:05.556Z,2.00
2023-01-03T03:27:52.646Z,1.70
2023-01-03T03:30:24.591Z,2.37
2023-01-03T03:32:57.963Z,1.73
2023-01-03T03:35:26.666Z,2.00
2023-01-03T03:37:58.118Z,1.90
2023-01-03T03:40:47.338Z,1.73
2023-01-03T03:43:40.404Z,1.83
2023-01-03T03:46:15.999Z,1.50
2023-01-03T03:49:07.475Z,2.00
2023-01-03T03:51:38.534Z,1.70
2023-01-03T03:54:12.279Z,1.50
2023-01-03T03:56:43.889Z,1.53
2023-01-03T03:59:12.809Z,2.33
2023-01-03T04:01:43.427Z,1.40
2023-01-03T04:04:23.516Z,2.37
2023-01-03T04:06:53.211Z,2.00
2023-01-03T04:09:21.222Z,1.83
2023-01-03T04:11:49.283Z,1.80
2023-01-03T04:14:16.998Z,2.53
2023-01-03T04:16:44.746Z,2.73
2023-01-03T04:19:15.366Z,2.17
2023-01-03T04:21:43.031Z,2.10
2023-01-03T04:24:10.802Z,4.17
2023-01-03T04:26:38.422Z,3.53
2023-01-03T04:29:06.069Z,1.90
2023-01-03T04:31:33.851Z,1.80
2023-01-03T04:34:01.532Z,4.73
2023-01-03T04:36:30.708Z,6.67
2023-01-03T04:38:58.421Z,6.30
2023-01-03T04:41:26.109Z,4.47
2023-01-03T04:44:02.135Z,6.03
2023-01-03T04:46:30.953Z,5.53
2023-01-03T04:48:58.692Z,4.03
2023-01-03T04:51:26.937Z,3.37
2023-01-03T04:53:56.126Z,4.40
2023-01-03T04:56:28.632Z,9.97
2023-01-03T04:58:56.955Z,9.97
2023-01-03T05:01:25.127Z,8.80
2023-01-03T05:03:53.275Z,5.70
2023-01-03T05:06:21.111Z,5.03
2023-01-03T05:08:50.063Z,4.20
2023-01-03T05:11:19.219Z,5.27
2023-01-03T05:13:46.959Z,4.80
2023-01-03T05:16:16.649Z,6.43
2023-01-03T05:18:44.458Z,8.53
2023-01-03T05:21:33.963Z,8.03
2023-01-03T05:24:19.395Z,6.00
2023-01-03T05:26:49.052Z,5.47
2023-01-03T05:29:20.648Z,4.80
2023-01-03T05:31:49.017Z,3.87
2023-01-03T05:34:16.978Z,4.33
2023-01-03T05:36:44.677Z,6.37
2023-01-03T05:39:12.564Z,5.40
2023-01-03T05:41:57.585Z,6.33
2023-01-03T05:44:27.429Z,6.23
2023-01-03T05:46:55.180Z,5.83
2023-01-03T05:49:22.913Z,7.37
2023-01-03T05:51:50.952Z,7.53
2023-01-03T05:54:20.031Z,10.77
2023-01-03T05:56:48.930Z,5.10
2023-01-03T05:59:17.040Z,3.50
2023-01-03T06:01:46.315Z,3.70
2023-01-03T06:04:14.269Z,4.07
2023-01-03T06:06:41.994Z,3.47
2023-01-03T06:09:09.701Z,3.37
2023-01-03T06:11:37.439Z,3.47
2023-01-03T06:14:05.132Z,3.30
2023-01-03T06:16:50.584Z,5.70
2023-01-03T06:19:19.663Z,6.50
2023-01-03T06:21:47.480Z,8.77
2023-01-03T06:24:15.189Z,4.37
2023-01-03T06:26:42.931Z,4.07
2023-01-03T06:29:10.792Z,4.60
2023-01-03T06:31:38.534Z,5.73
2023-01-03T06:34:06.258Z,5.40
2023-01-03T06:36:36.521Z,5.67
2023-01-03T06:39:04.394Z,4.53
2023-01-03T06:41:32.124Z,6.67
2023-01-03T06:43:59.842Z,6.90
2023-01-03T06:46:56.990Z,6.23
2023-01-03T06:49:42.086Z,6.77
2023-01-03T06:52:33.115Z,7.10
2023-01-03T06:55:00.883Z,5.10
2023-01-03T06:57:29.232Z,4.57
2023-01-03T06:59:56.973Z,6.33
2023-01-03T07:02:25.885Z,5.80
2023-01-03T07:04:53.899Z,4.97
2023-01-03T07:07:23.029Z,5.10
2023-01-03T07:09:50.742Z,5.40
2023-01-03T07:12:37.312Z,4.37
2023-01-03T07:15:05.819Z,2.93
2023-01-03T07:17:33.547Z,4.37
2023-01-03T07:20:01.278Z,4.90
2023-01-03T07:22:30.369Z,43.40
2023-01-03T07:24:58.060Z,3.80
2023-01-03T07:27:25.791Z,3.10
2023-01-03T07:29:53.528Z,3.20
2023-01-03T07:32:21.236Z,3.40
2023-01-03T07:34:49.008Z,2.53
2023-01-03T07:37:16.707Z,3.40
2023-01-03T07:39:45.788Z,3.87
2023-01-03T07:42:30.857Z,2.43
2023-01-03T07:44:58.774Z,3.30
2023-01-03T07:47:26.507Z,4.00
2023-01-03T07:49:54.236Z,3.60
2023-01-03T07:52:21.953Z,5.23
2023-01-03T07:54:51.079Z,20.97
2023-01-03T07:57:18.774Z,3.87
2023-01-03T07:59:46.544Z,5.43
2023-01-03T08:02:14.315Z,3.40
2023-01-03T08:04:42.203Z,2.60
2023-01-03T08:07:11.081Z,3.40
2023-01-03T08:09:56.463Z,3.83
2023-01-03T08:12:43.005Z,3.80
2023-01-03T08:15:11.106Z,5.47
2023-01-03T08:17:38.796Z,4.67
2023-01-03T08:20:08.046Z,4.57
2023-01-03T08:22:35.772Z,5.13
2023-01-03T08:25:03.504Z,5.07
2023-01-03T08:27:32.615Z,5.03
2023-01-03T08:30:00.468Z,4.97
2023-01-03T08:32:29.240Z,6.87
2023-01-03T08:34:57.172Z,10.37
2023-01-03T08:37:25.019Z,8.80
2023-01-03T08:39:55.958Z,6.97
2023-01-03T08:42:24.437Z,5.60
2023-01-03T08:44:59.336Z,4.90
2023-01-03T08:47:27.809Z,3.83
2023-01-03T08:49:56.249Z,6.33
2023-01-03T08:52:33.073Z,6.67
2023-01-03T08:55:02.643Z,6.13
2023-01-03T08:57:30.469Z,5.67
2023-01-03T08:59:59.587Z,8.03
2023-01-03T09:02:27.614Z,8.90
2023-01-03T09:04:55.587Z,8.27
2023-01-03T09:07:23.278Z,7.20
2023-01-03T09:09:51.003Z,6.53
2023-01-03T09:12:18.987Z,4.43
2023-01-03T09:14:46.696Z,5.43
2023-01-03T09:17:15.950Z,4.37
2023-01-03T09:19:43.840Z,6.30
2023-01-03T09:22:11.676Z,5.20
2023-01-03T09:24:39.428Z,5.33
2023-01-03T09:27:07.108Z,5.70
2023-01-03T09:29:34.784Z,4.13
2023-01-03T09:32:03.505Z,4.77
2023-01-03T09:34:32.825Z,5.13
2023-01-03T09:37:00.633Z,6.40
2023-01-03T09:39:28.486Z,6.77
2023-01-03T09:42:13.995Z,6.40
2023-01-03T09:44:42.016Z,5.67
2023-01-03T09:47:19.779Z,4.60
2023-01-03T09:50:18.885Z,4.83
2023-01-03T09:53:01.435Z,5.20
2023-01-03T09:55:55.810Z,4.90
2023-01-03T09:58:41.295Z,4.80
2023-01-03T10:01:39.984Z,4.67
2023-01-03T10:04:25.361Z,3.83
2023-01-03T10:07:05.356Z,3.80
2023-01-03T10:09:41.855Z,3.23
2023-01-03T10:12:20.849Z,3.77
2023-01-03T10:15:05.539Z,3.50
2023-01-03T10:17:38.770Z,4.07
2023-01-03T10:20:33.486Z,3.60
2023-01-03T10:23:06.575Z,3.37
2023-01-03T10:25:34.424Z,3.77
2023-01-03T10:28:10.308Z,4.30
2023-01-03T10:30:58.322Z,4.00
2023-01-03T10:33:35.191Z,4.57
2023-01-03T10:36:02.987Z,5.03
2023-01-03T10:38:35.395Z,5.10
2023-01-03T10:41:17.678Z,4.40
2023-01-03T10:43:46.773Z,4.10
2023-01-03T10:46:17.352Z,4.30
2023-01-03T10:51:42.927Z,4.10
2023-01-03T10:54:24.573Z,3.50
2023-01-03T10:56:52.370Z,3.93
2023-01-03T10:59:24.661Z,3.70
2023-01-03T11:02:04.191Z,4.17
2023-01-03T11:04:33.336Z,4.77
2023-01-03T11:07:13.898Z,4.90
2023-01-03T11:09:51.696Z,3.93
2023-01-03T11:12:28.591Z,3.30
2023-01-03T11:15:01.121Z,3.50
2023-01-03T11:17:32.471Z,3.43
2023-01-03T11:20:00.257Z,3.07
2023-01-03T11:22:38.496Z,4.23
2023-01-03T11:25:25.976Z,3.40
2023-01-03T11:28:19.985Z,3.10
2023-01-03T11:30:55.054Z,3.30
2023-01-03T11:33:46.157Z,3.90
2023-01-03T11:36:40.029Z,2.80
2023-01-03T11:39:27.173Z,2.83
2023-01-03T11:42:16.668Z,2.90
2023-01-03T11:45:00.334Z,3.23
2023-01-03T11:47:39.542Z,2.67
2023-01-03T11:50:24.813Z,2.80
2023-01-03T11:53:00.346Z,2.80
2023-01-03T11:55:56.949Z,2.80
2023-01-03T11:58:55.031Z,2.70
2023-01-03T12:01:39.546Z,3.07
2023-01-03T12:04:24.667Z,3.10
2023-01-03T12:10:04.825Z,2.40
2023-01-03T12:13:08.726Z,1.93
2023-01-03T12:15:46.501Z,2.40
2023-01-03T12:18:21.910Z,1.87
2023-01-03T12:20:56.031Z,2.40
2023-01-03T12:23:36.071Z,1.93
2023-01-03T12:26:07.639Z,1.90
2023-01-03T12:28:40.717Z,2.13
2023-01-03T12:31:19.862Z,2.20
2023-01-03T12:33:56.888Z,2.10
2023-01-03T12:36:34.640Z,2.33
2023-01-03T12:39:13.106Z,2.10
2023-01-03T12:41:47.303Z,2.20
2023-01-03T12:44:20.883Z,2.30
2023-01-03T12:46:54.025Z,2.87
2023-01-03T12:49:27.147Z,2.10
2023-01-03T12:51:54.896Z,3.20
2023-01-03T12:54:36.297Z,2.07
2023-01-03T12:57:22.554Z,2.50
2023-01-03T13:00:05.136Z,2.10
2023-01-03T13:02:46.512Z,3.30
2023-01-03T13:05:19.936Z,2.00
2023-01-03T13:07:53.855Z,2.00
2023-01-03T13:10:25.428Z,3.00
2023-01-03T13:12:54.049Z,2.43
2023-01-03T13:15:35.652Z,2.37
2023-01-03T13:18:38.828Z,2.07
2023-01-03T13:21:51.164Z,2.33
2023-01-03T13:24:44.451Z,2.87
2023-01-03T13:27:36.141Z,1.57
2023-01-03T13:30:18.077Z,2.23
2023-01-03T13:32:50.767Z,3.17
2023-01-03T13:35:36.323Z,2.57
2023-01-03T13:38:25.142Z,1.70
2023-01-03T13:43:51.224Z,3.20
2023-01-03T13:46:23.000Z,2.37
2023-01-03T13:48:57.205Z,2.00
2023-01-03T13:51:35.991Z,2.07
2023-01-03T13:54:24.267Z,3.40
2023-01-03T13:57:03.501Z,1.70
2023-01-03T13:59:37.023Z,2.10
2023-01-03T14:02:58.561Z,2.70
2023-01-03T14:06:01.475Z,3.17
2023-01-03T14:08:44.464Z,1.70
2023-01-03T14:11:34.086Z,2.30
2023-01-03T14:14:05.522Z,2.00
2023-01-03T14:16:45.440Z,2.03
2023-01-03T14:19:20.444Z,2.47
2023-01-03T14:21:52.931Z,2.50
2023-01-03T14:24:26.426Z,2.50
2023-01-03T14:26:54.816Z,3.43
2023-01-03T14:29:26.572Z,3.30
2023-01-03T14:31:56.918Z,2.47
2023-01-03T14:34:31.595Z,3.40
2023-01-03T14:37:04.734Z,5.10
2023-01-03T14:42:03.083Z,2.43
2023-01-03T14:44:31.259Z,3.33
2023-01-03T14:47:03.753Z,3.23
2023-01-03T14:49:41.575Z,2.10
2023-01-03T14:52:14.972Z,2.50
2023-01-03T14:54:48.165Z,2.27
2023-01-03T14:57:20.397Z,2.07
2023-01-03T14:59:49.602Z,2.57
2023-01-03T15:02:18.449Z,3.37
2023-01-03T15:04:51.755Z,2.77
2023-01-03T15:07:33.394Z,3.73
2023-01-03T15:10:19.470Z,2.80
2023-01-03T15:12:50.290Z,2.47
2023-01-03T15:15:22.563Z,5.10
2023-01-03T15:17:53.906Z,4.17
2023-01-03T15:20:30.034Z,3.10
2023-01-03T15:22:58.001Z,3.30
2023-01-03T15:25:33.518Z,5.27
2023-01-03T15:28:14.108Z,3.97
2023-01-03T15:30:49.313Z,5.70
2023-01-03T15:33:24.786Z,3.60
2023-01-03T15:35:55.465Z,4.33
2023-01-03T15:38:31.595Z,3.67
2023-01-03T15:41:14.479Z,3.47
2023-01-03T15:43:41.572Z,3.87
2023-01-03T15:46:14.944Z,3.90
2023-01-03T15:48:44.496Z,4.83
2023-01-03T15:51:12.202Z,6.50
2023-01-03T15:53:44.625Z,7.97
2023-01-03T15:56:19.733Z,7.33
2023-01-03T15:58:48.661Z,6.93
2023-01-03T16:01:17.621Z,9.50
2023-01-03T16:03:46.051Z,5.23
2023-01-03T16:06:13.929Z,6.43
2023-01-03T16:08:42.592Z,4.87
2023-01-03T16:11:18.311Z,4.07
2023-01-03T16:13:51.911Z,3.80
2023-01-03T16:16:25.602Z,5.00
2023-01-03T16:18:54.914Z,4.27
2023-01-03T16:21:23.296Z,5.13
2023-01-03T16:23:51.315Z,4.80
2023-01-03T16:26:19.458Z,4.63
2023-01-03T16:28:48.566Z,4.53
2023-01-03T16:31:19.280Z,6.23
2023-01-03T16:33:49.052Z,4.07
2023-01-03T16:36:26.955Z,4.13
2023-01-03T16:38:54.738Z,5.07
2023-01-03T16:41:22.601Z,4.57
2023-01-03T16:43:52.646Z,4.17
2023-01-03T16:46:22.850Z,4.30
2023-01-03T16:48:53.018Z,4.40
2023-01-03T16:51:25.216Z,5.93
2023-01-03T16:53:54.525Z,4.87
2023-01-03T16:56:22.362Z,5.43
2023-01-03T16:58:51.667Z,6.50
2023-01-03T17:01:20.096Z,6.30
2023-01-03T17:03:48.698Z,6.67
2023-01-03T17:06:35.120Z,7.07
2023-01-03T17:09:07.656Z,6.67
2023-01-03T17:11:35.681Z,6.50
2023-01-03T17:14:05.153Z,5.90
2023-01-03T17:16:33.996Z,6.13
2023-01-03T17:19:01.782Z,6.60
2023-01-03T17:21:31.525Z,7.27
2023-01-03T17:24:01.491Z,6.57
2023-01-03T17:26:32.872Z,11.83
2023-01-03T17:29:02.771Z,6.20
2023-01-03T17:31:31.910Z,7.07
2023-01-03T17:33:59.727Z,8.93
2023-01-03T17:36:30.785Z,11.23
2023-01-03T17:39:03.282Z,11.23
2023-01-03T17:41:51.808Z,9.90
2023-01-03T17:44:19.831Z,10.60
2023-01-03T17:47:06.704Z,11.97
2023-01-03T17:49:34.560Z,11.33
2023-01-03T17:52:06.194Z,10.27
2023-01-03T17:54:37.735Z,10.77
2023-01-03T17:57:06.569Z,16.40
2023-01-03T17:59:35.054Z,9.93
2023-01-03T18:02:18.150Z,11.10
2023-01-03T18:05:14.706Z,11.57
2023-01-03T18:07:34.627Z,10.67
2023-01-03T18:10:02.945Z,10.00
2023-01-03T18:12:30.820Z,11.23
2023-01-03T18:14:58.558Z,11.87
2023-01-03T18:17:30.710Z,12.83
2023-01-03T18:19:59.909Z,11.50
2023-01-03T18:22:28.893Z,14.27
2023-01-03T18:24:58.108Z,13.80
2023-01-03T18:27:28.510Z,16.33
2023-01-03T18:29:56.411Z,15.23
2023-01-03T18:32:29.541Z,17.87
2023-01-03T18:34:58.069Z,15.20
2023-01-03T18:37:30.792Z,14.77
2023-01-03T18:39:58.613Z,15.00
2023-01-03T18:42:44.871Z,13.97
2023-01-03T18:45:13.729Z,15.43
2023-01-03T18:47:42.828Z,14.07
2023-01-03T18:50:18.033Z,13.03
2023-01-03T18:52:47.223Z,13.23
2023-01-03T18:55:17.691Z,13.23
2023-01-03T18:57:46.806Z,15.10
2023-01-03T19:00:19.906Z,14.27
2023-01-03T19:02:49.217Z,13.70
2023-01-03T19:05:17.383Z,14.07
2023-01-03T19:07:47.285Z,13.73
2023-01-03T19:10:21.058Z,14.03
2023-01-03T19:12:50.175Z,16.30
2023-01-03T19:15:19.206Z,17.77
2023-01-03T19:17:47.239Z,15.10
2023-01-03T19:20:19.563Z,13.60
2023-01-03T19:22:53.158Z,13.27
2023-01-03T19:25:25.545Z,12.67
2023-01-03T19:30:37.555Z,13.70
2023-01-03T19:33:07.581Z,13.63
2023-01-03T19:35:36.902Z,13.87
2023-01-03T19:38:04.953Z,14.13
2023-01-03T19:40:35.415Z,14.60
2023-01-03T19:43:04.184Z,12.93
2023-01-03T19:45:34.548Z,16.00
2023-01-03T19:48:04.351Z,15.50
2023-01-03T19:50:34.771Z,17.00
2023-01-03T19:53:04.275Z,18.23
2023-01-03T19:55:34.086Z,24.23
2023-01-03T19:58:06.162Z,23.47
2023-01-03T20:00:34.423Z,25.40
2023-01-03T20:03:06.162Z,21.33
2023-01-03T20:05:36.237Z,17.77
2023-01-03T20:08:12.101Z,18.83
2023-01-03T20:10:43.502Z,16.80
2023-01-03T20:13:16.746Z,14.53
2023-01-03T20:15:46.431Z,15.70
2023-01-03T20:18:26.662Z,15.67
2023-01-03T20:20:58.064Z,16.93
2023-01-03T20:23:32.251Z,15.47
2023-01-03T20:26:00.468Z,15.67
2023-01-03T20:28:31.049Z,15.97
2023-01-03T20:31:00.947Z,16.10
2023-01-03T20:33:29.956Z,15.00
2023-01-03T20:36:12.680Z,17.27
2023-01-03T20:38:49.395Z,18.33
2023-01-03T20:41:19.435Z,17.70
2023-01-03T20:43:48.997Z,14.87
2023-01-03T20:46:20.104Z,13.30
2023-01-03T20:49:00.672Z,13.13
2023-01-03T20:51:29.342Z,13.53
2023-01-03T20:53:58.726Z,12.77
2023-01-03T20:56:28.007Z,15.13
2023-01-03T20:58:55.953Z,16.93
2023-01-03T21:01:23.967Z,15.93
2023-01-03T21:03:52.022Z,15.50
2023-01-03T21:06:22.522Z,20.17
2023-01-03T21:08:57.855Z,20.77
2023-01-03T21:11:29.257Z,22.23
2023-01-03T21:13:58.003Z,17.83
2023-01-03T21:16:34.924Z,15.47
2023-01-03T21:19:05.129Z,13.03
2023-01-03T21:21:33.659Z,9.77
2023-01-03T21:24:02.392Z,9.97
2023-01-03T21:26:31.741Z,22.83
2023-01-03T21:29:00.118Z,20.17
2023-01-03T21:31:28.179Z,11.57
2023-01-03T21:33:56.771Z,12.67
2023-01-03T21:36:26.650Z,13.57
2023-01-03T21:38:55.215Z,17.87
2023-01-03T21:41:25.317Z,15.47
2023-01-03T21:43:57.014Z,16.73
2023-01-03T21:46:25.964Z,15.33
2023-01-03T21:48:54.810Z,19.37
2023-01-03T21:51:35.464Z,24.47
2023-01-03T21:54:06.886Z,16.73
2023-01-03T21:56:37.618Z,19.67
2023-01-03T21:59:06.892Z,13.13
2023-01-03T22:04:35.453Z,11.33
2023-01-03T22:07:03.429Z,24.87
2023-01-03T22:09:50.011Z,13.17
2023-01-03T22:12:18.754Z,14.63
2023-01-03T22:14:48.343Z,10.10
2023-01-03T22:17:17.032Z,23.17
2023-01-03T22:19:44.959Z,20.47
2023-01-03T22:22:12.872Z,17.47
2023-01-03T22:24:40.888Z,19.13
2023-01-03T22:27:09.065Z,24.27
2023-01-03T22:29:36.979Z,18.83
2023-01-03T22:32:06.592Z,39.37
2023-01-03T22:34:34.739Z,15.37
2023-01-03T22:37:02.785Z,31.80
2023-01-03T22:39:30.657Z,25.13
2023-01-03T22:41:58.732Z,30.57
2023-01-03T22:44:26.635Z,37.30
2023-01-03T22:46:54.525Z,26.47
2023-01-03T22:49:23.819Z,32.10
2023-01-03T22:51:51.729Z,31.03
2023-01-03T22:54:19.670Z,28.80
2023-01-03T22:56:47.604Z,40.77
2023-01-03T22:59:16.065Z,38.07
2023-01-03T23:01:44.226Z,28.53
2023-01-03T23:04:12.952Z,26.23
2023-01-03T23:06:42.411Z,34.80
2023-01-03T23:09:12.212Z,39.53
2023-01-03T23:11:58.179Z,21.97
2023-01-03T23:14:27.957Z,24.90
2023-01-03T23:16:56.680Z,35.60
2023-01-03T23:19:26.928Z,19.90
2023-01-03T23:21:58.278Z,17.73
2023-01-03T23:24:26.374Z,32.97
2023-01-03T23:26:54.457Z,26.90
2023-01-03T23:29:22.543Z,38.47
2023-01-03T23:31:50.528Z,40.90
2023-01-03T23:34:18.463Z,49.10
2023-01-03T23:36:46.539Z,29.43
2023-01-03T23:39:17.987Z,26.20
2023-01-03T23:41:46.559Z,34.03
2023-01-03T23:44:14.661Z,38.10
2023-01-03T23:46:42.680Z,19.53
2023-01-03T23:49:12.410Z,41.07
2023-01-03T23:51:40.371Z,35.63
2023-01-03T23:54:08.402Z,33.63
2023-01-03T23:56:37.942Z,33.30
2023-01-03T23:59:06.317Z,32.33
